sensor_id;sensor_type;location;lat;lon;timestamp;pressure;altitude;pressure_sealevel;temperature;humidity
48774;BME280;34576;0.000;0.000;2023-05-03T00:03:52;97309.78;;;18.41;65.66
48774;BME280;34576;0.000;0.000;2023-05-03T00:10:58;97302.88;;;18.40;65.75
48774;BME280;34576;0.000;0.000;2023-05-03T00:17:58;97302.31;;;18.38;65.31
48774;BME280;34576;0.000;0.000;2023-05-03T00:24:58;97297.00;;;18.38;65.59
48774;BME280;34576;0.000;0.000;2023-05-03T00:31:59;97294.31;;;18.38;66.24
48774;BME280;34576;0.000;0.000;2023-05-03T00:38:59;97292.19;;;18.35;65.59
48774;BME280;34576;0.000;0.000;2023-05-03T00:46:00;97292.72;;;18.37;65.64
48774;BME280;34576;0.000;0.000;2023-05-03T00:53:02;97286.84;;;18.35;65.58
48774;BME280;34576;0.000;0.000;2023-05-03T01:00:02;97293.25;;;18.34;66.03
48774;BME280;34576;0.000;0.000;2023-05-03T01:14:26;97275.66;;;18.33;65.59
48774;BME280;34576;0.000;0.000;2023-05-03T01:21:27;97272.75;;;18.34;66.36
48774;BME280;34576;0.000;0.000;2023-05-03T01:28:28;97263.41;;;18.32;65.44
48774;BME280;34576;0.000;0.000;2023-05-03T01:42:32;97271.69;;;18.30;66.01
48774;BME280;34576;0.000;0.000;2023-05-03T01:49:34;97260.19;;;18.29;65.42
48774;BME280;34576;0.000;0.000;2023-05-03T01:56:34;97258.09;;;18.32;66.04
48774;BME280;34576;0.000;0.000;2023-05-03T02:03:37;97266.34;;;18.30;65.76
48774;BME280;34576;0.000;0.000;2023-05-03T02:10:38;97257.00;;;18.33;65.42
48774;BME280;34576;0.000;0.000;2023-05-03T02:17:39;97264.22;;;18.32;65.95
48774;BME280;34576;0.000;0.000;2023-05-03T02:32:43;97241.81;;;18.28;66.16
48774;BME280;34576;0.000;0.000;2023-05-03T02:39:43;97239.16;;;18.28;66.21
48774;BME280;34576;0.000;0.000;2023-05-03T02:46:45;97236.22;;;18.29;66.26
48774;BME280;34576;0.000;0.000;2023-05-03T02:53:45;97237.31;;;18.28;66.01
48774;BME280;34576;0.000;0.000;2023-05-03T03:00:46;97242.09;;;18.26;66.07
48774;BME280;34576;0.000;0.000;2023-05-03T03:07:49;97243.97;;;18.26;66.38
48774;BME280;34576;0.000;0.000;2023-05-03T03:14:50;97238.09;;;18.24;66.10
48774;BME280;34576;0.000;0.000;2023-05-03T03:21:51;97245.81;;;18.25;66.08
48774;BME280;34576;0.000;0.000;2023-05-03T03:28:51;97241.84;;;18.23;66.15
48774;BME280;34576;0.000;0.000;2023-05-03T03:35:51;97244.22;;;18.19;66.05
48774;BME280;34576;0.000;0.000;2023-05-03T03:42:55;97234.09;;;18.21;66.42
48774;BME280;34576;0.000;0.000;2023-05-03T03:49:55;97248.25;;;18.37;68.97
48774;BME280;34576;0.000;0.000;2023-05-03T03:56:56;97246.38;;;18.38;69.08
48774;BME280;34576;0.000;0.000;2023-05-03T04:03:56;97247.72;;;18.40;69.60
48774;BME280;34576;0.000;0.000;2023-05-03T04:10:57;97252.78;;;18.42;69.94
48774;BME280;34576;0.000;0.000;2023-05-03T04:17:58;97250.91;;;18.37;70.59
48774;BME280;34576;0.000;0.000;2023-05-03T04:24:59;97254.94;;;18.50;70.87
48774;BME280;34576;0.000;0.000;2023-05-03T04:32:03;97249.28;;;18.26;69.33
48774;BME280;34576;0.000;0.000;2023-05-03T04:39:03;97275.66;;;13.08;63.14
48774;BME280;34576;0.000;0.000;2023-05-03T04:46:05;97274.03;;;12.95;62.03
48774;BME280;34576;0.000;0.000;2023-05-03T04:53:05;97269.25;;;16.08;58.74
48774;BME280;34576;0.000;0.000;2023-05-03T05:00:09;97268.22;;;17.29;60.66
48774;BME280;34576;0.000;0.000;2023-05-03T05:07:11;97261.91;;;17.40;62.01
48774;BME280;34576;0.000;0.000;2023-05-03T05:14:12;97264.13;;;17.53;62.24
48774;BME280;34576;0.000;0.000;2023-05-03T05:21:13;97272.69;;;17.60;62.77
48774;BME280;34576;0.000;0.000;2023-05-03T05:28:14;97275.69;;;17.74;62.60
48774;BME280;34576;0.000;0.000;2023-05-03T05:35:14;97271.66;;;17.67;63.28
48774;BME280;34576;0.000;0.000;2023-05-03T05:42:17;97281.81;;;17.75;63.30
48774;BME280;34576;0.000;0.000;2023-05-03T05:49:18;97275.19;;;17.77;63.56
48774;BME280;34576;0.000;0.000;2023-05-03T05:56:19;97270.66;;;17.78;63.68
48774;BME280;34576;0.000;0.000;2023-05-03T06:03:20;97267.97;;;17.78;63.76
48774;BME280;34576;0.000;0.000;2023-05-03T06:10:23;97258.38;;;17.77;64.11
48774;BME280;34576;0.000;0.000;2023-05-03T06:17:26;97260.81;;;17.79;63.88
48774;BME280;34576;0.000;0.000;2023-05-03T06:24:27;97258.94;;;17.79;63.69
48774;BME280;34576;0.000;0.000;2023-05-03T06:31:30;97255.75;;;17.82;63.54
48774;BME280;34576;0.000;0.000;2023-05-03T06:38:31;97250.97;;;17.79;63.83
48774;BME280;34576;0.000;0.000;2023-05-03T06:45:32;97256.31;;;17.84;63.62
48774;BME280;34576;0.000;0.000;2023-05-03T06:52:32;97244.84;;;17.84;63.59
48774;BME280;34576;0.000;0.000;2023-05-03T06:59:33;97243.00;;;17.84;63.59
48774;BME280;34576;0.000;0.000;2023-05-03T07:06:33;97235.03;;;17.89;63.26
48774;BME280;34576;0.000;0.000;2023-05-03T07:13:34;97213.25;;;17.92;63.51
48774;BME280;34576;0.000;0.000;2023-05-03T07:20:34;97204.47;;;17.92;63.32
48774;BME280;34576;0.000;0.000;2023-05-03T07:27:34;97192.50;;;17.94;63.31
48774;BME280;34576;0.000;0.000;2023-05-03T07:34:35;97190.38;;;17.97;63.36
48774;BME280;34576;0.000;0.000;2023-05-03T07:41:35;97185.59;;;17.99;63.21
48774;BME280;34576;0.000;0.000;2023-05-03T07:48:36;97187.19;;;18.00;63.25
48774;BME280;34576;0.000;0.000;2023-05-03T07:55:36;97175.22;;;18.02;63.38
48774;BME280;34576;0.000;0.000;2023-05-03T08:02:37;97181.59;;;18.06;63.19
48774;BME280;34576;0.000;0.000;2023-05-03T08:09:37;97193.03;;;18.07;63.18
48774;BME280;34576;0.000;0.000;2023-05-03T08:16:38;97197.88;;;18.10;62.94
48774;BME280;34576;0.000;0.000;2023-05-03T08:23:38;97193.34;;;18.10;63.08
48774;BME280;34576;0.000;0.000;2023-05-03T08:30:39;97192.81;;;18.14;63.26
48774;BME280;34576;0.000;0.000;2023-05-03T08:37:40;97190.72;;;18.26;62.87
48774;BME280;34576;0.000;0.000;2023-05-03T08:44:43;97190.97;;;18.29;62.74
48774;BME280;34576;0.000;0.000;2023-05-03T08:51:44;97201.09;;;18.33;62.61
48774;BME280;34576;0.000;0.000;2023-05-03T08:58:48;97191.25;;;18.33;62.74
48774;BME280;34576;0.000;0.000;2023-05-03T09:05:49;97201.34;;;18.26;63.02
48774;BME280;34576;0.000;0.000;2023-05-03T09:12:49;97198.44;;;18.27;63.35
48774;BME280;34576;0.000;0.000;2023-05-03T09:19:57;97204.81;;;18.32;63.01
48774;BME280;34576;0.000;0.000;2023-05-03T09:26:57;97206.69;;;18.36;63.17
48774;BME280;34576;0.000;0.000;2023-05-03T09:34:01;97197.38;;;18.34;63.08
48774;BME280;34576;0.000;0.000;2023-05-03T09:41:04;97194.16;;;18.37;62.81
48774;BME280;34576;0.000;0.000;2023-05-03T09:48:07;97183.78;;;18.40;62.92
48774;BME280;34576;0.000;0.000;2023-05-03T09:55:07;97185.38;;;18.46;62.73
48774;BME280;34576;0.000;0.000;2023-05-03T10:02:08;97175.56;;;18.47;62.98
48774;BME280;34576;0.000;0.000;2023-05-03T10:09:17;97172.88;;;18.52;62.72
48774;BME280;34576;0.000;0.000;2023-05-03T10:16:20;97188.84;;;18.52;62.74
48774;BME280;34576;0.000;0.000;2023-05-03T10:23:22;97175.25;;;18.54;62.89
48774;BME280;34576;0.000;0.000;2023-05-03T10:30:26;97183.00;;;18.55;62.81
48774;BME280;34576;0.000;0.000;2023-05-03T10:37:28;97164.63;;;18.64;62.68
48774;BME280;34576;0.000;0.000;2023-05-03T10:44:38;97153.41;;;18.57;62.84
48774;BME280;34576;0.000;0.000;2023-05-03T10:51:39;97144.34;;;18.68;62.92
48774;BME280;34576;0.000;0.000;2023-05-03T10:58:43;97149.44;;;18.65;62.45
48774;BME280;34576;0.000;0.000;2023-05-03T11:05:46;97135.56;;;18.62;62.33
48774;BME280;34576;0.000;0.000;2023-05-03T11:12:47;97130.00;;;18.64;62.45
48774;BME280;34576;0.000;0.000;2023-05-03T11:19:47;97129.44;;;18.72;62.31
48774;BME280;34576;0.000;0.000;2023-05-03T11:26:48;97114.75;;;18.70;62.42
48774;BME280;34576;0.000;0.000;2023-05-03T11:33:49;97113.19;;;18.69;62.53
48774;BME280;34576;0.000;0.000;2023-05-03T11:40:50;97111.59;;;18.73;62.52
48774;BME280;34576;0.000;0.000;2023-05-03T11:47:50;97110.22;;;18.75;62.38
48774;BME280;34576;0.000;0.000;2023-05-03T11:54:51;97100.94;;;18.73;62.46
48774;BME280;34576;0.000;0.000;2023-05-03T12:01:52;97109.97;;;18.77;62.57
48774;BME280;34576;0.000;0.000;2023-05-03T12:08:52;97107.84;;;18.79;62.53
48774;BME280;34576;0.000;0.000;2023-05-03T12:15:56;97095.28;;;18.79;62.57
48774;BME280;34576;0.000;0.000;2023-05-03T12:23:01;97089.44;;;18.83;62.49
48774;BME280;34576;0.000;0.000;2023-05-03T12:30:02;97086.78;;;18.83;62.66
48774;BME280;34576;0.000;0.000;2023-05-03T12:37:03;97083.84;;;18.84;62.81
48774;BME280;34576;0.000;0.000;2023-05-03T12:44:03;97089.19;;;18.84;62.85
48774;BME280;34576;0.000;0.000;2023-05-03T12:51:03;97075.34;;;18.87;62.58
48774;BME280;34576;0.000;0.000;2023-05-03T12:58:04;97064.41;;;18.89;62.67
48774;BME280;34576;0.000;0.000;2023-05-03T13:05:05;97049.19;;;18.89;62.75
48774;BME280;34576;0.000;0.000;2023-05-03T13:12:06;97049.19;;;18.89;62.87
48774;BME280;34576;0.000;0.000;2023-05-03T13:19:07;97037.47;;;18.90;62.98
48774;BME280;34576;0.000;0.000;2023-05-03T13:26:07;97031.34;;;18.90;62.96
48774;BME280;34576;0.000;0.000;2023-05-03T13:33:07;97018.03;;;18.90;62.90
48774;BME280;34576;0.000;0.000;2023-05-03T13:40:08;97005.75;;;18.89;62.95
48774;BME280;34576;0.000;0.000;2023-05-03T13:47:09;96999.63;;;18.88;63.04
48774;BME280;34576;0.000;0.000;2023-05-03T13:54:09;96992.44;;;18.89;63.16
48774;BME280;34576;0.000;0.000;2023-05-03T14:01:10;96974.56;;;18.89;63.34
48774;BME280;34576;0.000;0.000;2023-05-03T14:08:10;96987.38;;;18.87;63.35
48774;BME280;34576;0.000;0.000;2023-05-03T14:15:10;96980.41;;;18.86;63.30
48774;BME280;34576;0.000;0.000;2023-05-03T14:22:12;96978.28;;;18.88;63.38
48774;BME280;34576;0.000;0.000;2023-05-03T14:29:12;96980.16;;;18.88;63.31
48774;BME280;34576;0.000;0.000;2023-05-03T14:36:12;96972.72;;;18.90;63.54
48774;BME280;34576;0.000;0.000;2023-05-03T14:43:13;96961.78;;;18.91;63.63
48774;BME280;34576;0.000;0.000;2023-05-03T14:50:14;96964.94;;;18.93;64.82
48774;BME280;34576;0.000;0.000;2023-05-03T14:57:15;96959.59;;;18.99;65.09
48774;BME280;34576;0.000;0.000;2023-05-03T15:04:15;96958.50;;;19.05;65.17
48774;BME280;34576;0.000;0.000;2023-05-03T15:11:16;96959.00;;;19.07;65.41
48774;BME280;34576;0.000;0.000;2023-05-03T15:18:16;96957.66;;;19.09;65.43
48774;BME280;34576;0.000;0.000;2023-05-03T15:25:19;96955.53;;;19.11;65.80
48774;BME280;34576;0.000;0.000;2023-05-03T15:32:19;96961.66;;;19.12;66.03
48774;BME280;34576;0.000;0.000;2023-05-03T15:39:19;96966.97;;;19.12;66.13
48774;BME280;34576;0.000;0.000;2023-05-03T15:46:20;96970.44;;;19.12;66.24
48774;BME280;34576;0.000;0.000;2023-05-03T15:53:20;96971.75;;;19.15;66.26
48774;BME280;34576;0.000;0.000;2023-05-03T16:00:21;96973.91;;;19.13;66.33
48774;BME280;34576;0.000;0.000;2023-05-03T16:07:21;96968.06;;;19.11;66.42
48774;BME280;34576;0.000;0.000;2023-05-03T16:14:22;96964.31;;;19.12;66.51
48774;BME280;34576;0.000;0.000;2023-05-03T16:21:23;96971.81;;;19.10;66.60
48774;BME280;34576;0.000;0.000;2023-05-03T16:28:24;96968.88;;;19.06;66.63
48774;BME280;34576;0.000;0.000;2023-05-03T16:35:24;96958.78;;;19.03;66.60
48774;BME280;34576;0.000;0.000;2023-05-03T16:42:24;96956.38;;;19.02;66.60
48774;BME280;34576;0.000;0.000;2023-05-03T16:49:25;96957.16;;;19.02;66.58
48774;BME280;34576;0.000;0.000;2023-05-03T16:56:26;96953.72;;;19.02;66.39
48774;BME280;34576;0.000;0.000;2023-05-03T17:03:28;96953.19;;;19.00;66.26
48774;BME280;34576;0.000;0.000;2023-05-03T17:10:29;96957.72;;;18.99;66.31
48774;BME280;34576;0.000;0.000;2023-05-03T17:17:30;96957.72;;;18.99;66.16
48774;BME280;34576;0.000;0.000;2023-05-03T17:24:31;96964.94;;;18.99;66.05
48774;BME280;34576;0.000;0.000;2023-05-03T17:31:32;96964.94;;;18.99;66.00
48774;BME280;34576;0.000;0.000;2023-05-03T17:38:33;96976.66;;;18.97;65.94
48774;BME280;34576;0.000;0.000;2023-05-03T17:45:35;96980.38;;;18.96;65.97
48774;BME280;34576;0.000;0.000;2023-05-03T17:52:35;96981.47;;;18.95;65.92
48774;BME280;34576;0.000;0.000;2023-05-03T17:59:36;96982.91;;;19.22;60.84
48774;BME280;34576;0.000;0.000;2023-05-03T18:06:36;96994.81;;;18.95;63.77
48774;BME280;34576;0.000;0.000;2023-05-03T18:13:36;97001.22;;;18.94;64.03
48774;BME280;34576;0.000;0.000;2023-05-03T18:20:36;97008.66;;;18.92;64.25
48774;BME280;34576;0.000;0.000;2023-05-03T18:27:37;97015.88;;;18.92;64.33
48774;BME280;34576;0.000;0.000;2023-05-03T18:34:38;97007.09;;;18.91;64.49
48774;BME280;34576;0.000;0.000;2023-05-03T18:41:38;97015.09;;;18.91;64.53
48774;BME280;34576;0.000;0.000;2023-05-03T18:48:38;97014.28;;;18.91;64.54
48774;BME280;34576;0.000;0.000;2023-05-03T18:55:39;97011.59;;;18.91;64.56
48774;BME280;34576;0.000;0.000;2023-05-03T19:02:40;97021.47;;;18.90;64.53
48774;BME280;34576;0.000;0.000;2023-05-03T19:09:40;97034.03;;;18.90;64.54
48774;BME280;34576;0.000;0.000;2023-05-03T19:16:41;97036.69;;;18.90;64.53
48774;BME280;34576;0.000;0.000;2023-05-03T19:23:41;97044.69;;;18.90;64.46
48774;BME280;34576;0.000;0.000;2023-05-03T19:30:42;97048.41;;;18.89;64.39
48774;BME280;34576;0.000;0.000;2023-05-03T19:37:44;97045.75;;;18.89;64.33
48774;BME280;34576;0.000;0.000;2023-05-03T19:44:44;97050.25;;;18.88;64.44
48774;BME280;34576;0.000;0.000;2023-05-03T19:51:45;97052.91;;;18.88;64.41
48774;BME280;34576;0.000;0.000;2023-05-03T19:58:45;97052.91;;;18.88;64.32
48774;BME280;34576;0.000;0.000;2023-05-03T20:05:45;97059.59;;;18.86;64.27
48774;BME280;34576;0.000;0.000;2023-05-03T20:12:46;97052.38;;;18.86;64.24
48774;BME280;34576;0.000;0.000;2023-05-03T20:19:46;97060.66;;;18.85;64.00
48774;BME280;34576;0.000;0.000;2023-05-03T20:26:49;97056.91;;;18.86;63.96
48774;BME280;34576;0.000;0.000;2023-05-03T20:33:49;97050.78;;;18.85;63.80
48774;BME280;34576;0.000;0.000;2023-05-03T20:40:49;97051.88;;;18.84;63.72
48774;BME280;34576;0.000;0.000;2023-05-03T20:47:50;97053.44;;;18.85;63.11
48774;BME280;34576;0.000;0.000;2023-05-03T20:54:50;97041.75;;;18.91;63.62
48774;BME280;34576;0.000;0.000;2023-05-03T21:01:50;97050.53;;;18.76;63.42
48774;BME280;34576;0.000;0.000;2023-05-03T21:08:51;97048.69;;;18.87;63.27
48774;BME280;34576;0.000;0.000;2023-05-03T21:15:51;97043.88;;;18.79;63.64
48774;BME280;34576;0.000;0.000;2023-05-03T21:22:52;97040.69;;;18.77;64.06
48774;BME280;34576;0.000;0.000;2023-05-03T21:29:52;97025.47;;;18.93;64.53
48774;BME280;34576;0.000;0.000;2023-05-03T21:36:52;97031.59;;;18.78;63.75
48774;BME280;34576;0.000;0.000;2023-05-03T21:43:53;97028.69;;;18.74;63.69
48774;BME280;34576;0.000;0.000;2023-05-03T21:50:53;97027.63;;;18.75;63.93
48774;BME280;34576;0.000;0.000;2023-05-03T21:57:53;97011.38;;;18.77;63.80
48774;BME280;34576;0.000;0.000;2023-05-03T22:04:54;97017.78;;;18.76;64.06
48774;BME280;34576;0.000;0.000;2023-05-03T22:11:54;97015.38;;;18.74;64.10
48774;BME280;34576;0.000;0.000;2023-05-03T22:18:55;97005.00;;;18.73;64.38
48774;BME280;34576;0.000;0.000;2023-05-03T22:25:55;96997.78;;;18.73;64.38
48774;BME280;34576;0.000;0.000;2023-05-03T22:32:55;96992.72;;;18.72;64.44
48774;BME280;34576;0.000;0.000;2023-05-03T22:39:56;96991.66;;;18.73;64.48
48774;BME280;34576;0.000;0.000;2023-05-03T22:46:56;96994.06;;;18.74;64.40
48774;BME280;34576;0.000;0.000;2023-05-03T22:53:56;96990.06;;;18.72;64.51
48774;BME280;34576;0.000;0.000;2023-05-03T23:00:57;97005.00;;;18.73;64.57
48774;BME280;34576;0.000;0.000;2023-05-03T23:07:57;96994.84;;;18.75;64.69
48774;BME280;34576;0.000;0.000;2023-05-03T23:14:57;96990.31;;;18.75;64.73
48774;BME280;34576;0.000;0.000;2023-05-03T23:21:58;96984.75;;;18.72;64.63
48774;BME280;34576;0.000;0.000;2023-05-03T23:28:58;96989.78;;;18.73;64.73
48774;BME280;34576;0.000;0.000;2023-05-03T23:35:58;96982.84;;;18.72;64.95
48774;BME280;34576;0.000;0.000;2023-05-03T23:42:58;96974.88;;;18.72;64.93
48774;BME280;34576;0.000;0.000;2023-05-03T23:49:59;96979.41;;;18.72;65.30
48774;BME280;34576;0.000;0.000;2023-05-03T23:56:59;96968.19;;;18.75;65.16
